KBFM/BFM METAR and TAF weather

Enter ICAO airport designator
Station Type Date Time Source
KBFM METAR 2021/09/23 17:53 UTC NOAA

KBFM 231753Z 02011KT 10SM CLR 24/09 A3007 RMK AO2 SLP181 T02440094 10250 20144 58010


Station Type Date Time Source
KBFM Decoded METAR 2021/09/23 17:53 UTC NOAA

MOBILE DOWNTOWN AIRPORT, AL, United States (KBFM) 30-38N 88-04W 20M
Sep 23, 2021 - 01:53 PM EDT / 2021.09.23 1753 UTC
Wind: from the NNE (020 degrees) at 13 MPH (11 KT):0
Visibility: 10 mile(s):0
Sky conditions: clear
Temperature: 75.9 F (24.4 C)
Dew Point: 48.9 F (9.4 C)
Relative Humidity: 38%
Pressure (altimeter): 30.07 in. Hg (1018 hPa)
Pressure tendency: 0.03 inches (1.0 hPa) lower than three hours ago
ob: KBFM 231753Z 02011KT 10SM CLR 24/09 A3007 RMK AO2 SLP181 T02440094 10250 20144 58010
cycle: 18

Station Type Date Time Source
KBFM TAF 2021/09/23 18:27 UTC NOAA

TAF KBFM 231725Z 2318/2418 02011G19KT P6SM SKC
FM240000 01009KT P6SM SKC
FM240300 01006KT P6SM SKC

Example: see airport list